Tropical Cyclones
[Index]
Main Index Home Page Stock Weather Photos Extreme Storms Discussion Storm News and Storm Chasing Reports Tropical Cyclones / Hurricanes / Typhoons Weather Data and Links Wild Fires / Bushfires Weather Observation Techniques Weather Picture Catalogue Tornado Pictures and Reports Stock Video Footage and DVDs for sale
Season 1983-1984 Tropical Cyclone HAJA Track Map
Season 1983-1984 Summaries: [BoM-AU] [JTWC-AU] [JTWC-SIO] [JTWC-SPAC] [JTWC-SH]
<<- Previous TC | JTWC 1983-1984 Season | Next TC ->>

click for intensity scale information  Lat/long Grid: Show Hide

 Date Labels: Show Hide

Joint Typhoon Warning Centre Cyclone Data

Name: HAJA

07 Feb 1984 06:00 UTC to 20 Feb 1984 18:00 UTC

    date/time    lat    long     hPa   cat  kts
1984-02-07 06   12.5    72.6                  25          
1984-02-07 12   12.7    72.5                  30          
1984-02-07 18   12.9    72.3                  30          
1984-02-08 00   13.0    72.1                  30          
1984-02-08 06   13.0    71.8                  30          
1984-02-08 12   12.9    71.6                  30          
1984-02-08 18   12.8    71.3                  30          
1984-02-09 00   12.6    71.1                  30          
1984-02-09 06   12.4    70.9                  30          
1984-02-09 12   12.1    70.9                  30          
1984-02-09 18   11.7    71.2                  30          
1984-02-10 00   11.6    71.8                  30          
1984-02-10 06   11.7    72.4                  25          
1984-02-10 12   12.0    72.8                  25          
1984-02-10 18   12.5    73.2                  25          
1984-02-11 00   13.2    73.5                  30          
1984-02-11 06   14.0    73.8                  30          
1984-02-11 12   15.0    74.4                  30          
1984-02-11 18   15.8    75.0                  30          
1984-02-12 00   15.6    75.6                  30          
1984-02-12 06   15.1    75.8                  30          
1984-02-12 12   14.8    75.5                  30          
1984-02-12 18   14.7    75.0                  30          
1984-02-13 00   14.9    74.5                  30          
1984-02-13 06   15.3    74.0                  30          
1984-02-13 12   15.9    73.5                  30          
1984-02-13 18   16.4    72.8                  35          
1984-02-14 00   16.8    71.9                  35          
1984-02-14 06   17.2    71.0            1     40          
1984-02-14 12   17.5    70.1            1     40          
1984-02-14 18   17.9    69.1            1     40          
1984-02-15 00   18.5    68.2            1     40          
1984-02-15 06   19.1    67.2                  35          
1984-02-15 12   19.8    66.2                  35          
1984-02-15 18   20.4    65.2                  35          
1984-02-16 00   20.9    64.2                  30          
1984-02-16 06   21.4    63.2                  25          
1984-02-16 12   21.9    62.0                  25          
1984-02-16 18   22.4    60.8                  30          
1984-02-17 00   22.8    59.6                  35          
1984-02-17 06   23.0    58.4                  35          
1984-02-17 12   23.2    57.3                  35          
1984-02-17 18   23.4    56.2                  35          
1984-02-18 00   23.5    55.1                  35          
1984-02-18 06   23.7    54.0                  35          
1984-02-18 12   24.0    52.9                  35          
1984-02-18 18   24.4    51.8            1     40          
1984-02-19 00   24.9    50.9            1     40          
1984-02-19 06   25.5    50.1            1     45          
1984-02-19 12   26.1    49.4            1     45          
1984-02-19 18   26.7    49.0            1     45          
1984-02-20 00   27.4    48.9            1     45          
1984-02-20 06   28.1    49.1            1     40          
1984-02-20 12   28.7    49.5                  35          
1984-02-20 18   29.1    50.0                  30          
Winds are 1-min average.

Tropical cyclone tracks developed by Michael Bath using data from the Joint Typhoon Warning Centre Best Tracks and Google Maps.


[Australian Severe Weather index] [Copyright Notice] [Email Contacts] [Search This Site] [Privacy Policy]
Document: tropical_cyclone_haja.htm Updated: 18 September 2016